Terminal Aerodrome Forecast
Issued by NWS

Home | Current Version | Previous Version | Text Only | Print | Product List | Glossary On
Versions: 1 2 3 4 5 6 7 8 9 10 11 12 13 14 15 16 17 18 19
000
FTUS41 KGYX 311808 AAA
TAFRKD
TAF AMD
KRKD 311808Z 3118/0118 24008G15KT P6SM SCT050
     FM312200 28004KT P6SM SKC
      TEMPO 0108/0112 3SM BR SCT002
      AMD LTD TO CLD VIS AND WIND=

USA.gov is the U.S. government's official web portal to all federal, state and local government web resources and services.